sensor_id;sensor_type;location;lat;lon;timestamp;pressure;altitude;pressure_sealevel;temperature;humidity
73842;BME280;62184;52.006;5.924;2022-11-20T00:00:55;100635.53;;;-1.86;64.44
73842;BME280;62184;52.006;5.924;2022-11-20T00:03:21;100645.06;;;-1.88;65.12
73842;BME280;62184;52.006;5.924;2022-11-20T00:05:48;100629.28;;;-1.91;65.35
73842;BME280;62184;52.006;5.924;2022-11-20T00:08:14;100624.94;;;-1.90;65.28
73842;BME280;62184;52.006;5.924;2022-11-20T00:10:41;100638.06;;;-1.89;64.99
73842;BME280;62184;52.006;5.924;2022-11-20T00:13:10;100634.53;;;-1.91;65.05
73842;BME280;62184;52.006;5.924;2022-11-20T00:15:36;100631.91;;;-1.91;65.22
73842;BME280;62184;52.006;5.924;2022-11-20T00:18:03;100623.19;;;-1.90;65.34
73842;BME280;62184;52.006;5.924;2022-11-20T00:20:29;100614.50;;;-1.89;65.47
73842;BME280;62184;52.006;5.924;2022-11-20T00:22:56;100613.59;;;-1.91;65.40
73842;BME280;62184;52.006;5.924;2022-11-20T00:25:22;100610.06;;;-1.93;65.17
73842;BME280;62184;52.006;5.924;2022-11-20T00:27:48;100611.81;;;-1.92;65.60
73842;BME280;62184;52.006;5.924;2022-11-20T00:30:18;100601.34;;;-1.92;65.56
73842;BME280;62184;52.006;5.924;2022-11-20T00:32:44;100605.72;;;-1.91;65.23
73842;BME280;62184;52.006;5.924;2022-11-20T00:35:11;100596.09;;;-1.92;65.17
73842;BME280;62184;52.006;5.924;2022-11-20T00:37:37;100597.88;;;-1.91;65.14
73842;BME280;62184;52.006;5.924;2022-11-20T00:40:05;100596.09;;;-1.92;64.87
73842;BME280;62184;52.006;5.924;2022-11-20T00:42:32;100606.50;;;-1.96;64.71
73842;BME280;62184;52.006;5.924;2022-11-20T00:44:59;100602.91;;;-2.01;65.11
73842;BME280;62184;52.006;5.924;2022-11-20T00:47:28;100604.56;;;-2.05;65.23
73842;BME280;62184;52.006;5.924;2022-11-20T00:49:54;100609.78;;;-2.05;65.42
73842;BME280;62184;52.006;5.924;2022-11-20T00:52:20;100615.91;;;-2.04;65.80
73842;BME280;62184;52.006;5.924;2022-11-20T00:54:47;100619.38;;;-2.05;66.05
73842;BME280;62184;52.006;5.924;2022-11-20T00:57:13;100615.09;;;-2.02;65.89
73842;BME280;62184;52.006;5.924;2022-11-20T00:59:39;100604.59;;;-2.03;65.64
73842;BME280;62184;52.006;5.924;2022-11-20T01:02:06;100595.69;;;-2.11;65.34
73842;BME280;62184;52.006;5.924;2022-11-20T01:04:35;100599.03;;;-2.19;65.16
73842;BME280;62184;52.006;5.924;2022-11-20T01:07:01;100606.81;;;-2.22;65.07
73842;BME280;62184;52.006;5.924;2022-11-20T01:09:28;100611.06;;;-2.27;65.02
73842;BME280;62184;52.006;5.924;2022-11-20T01:11:54;100603.94;;;-2.32;65.82
73842;BME280;62184;52.006;5.924;2022-11-20T01:14:20;100610.00;;;-2.35;66.28
73842;BME280;62184;52.006;5.924;2022-11-20T01:16:48;100605.66;;;-2.34;66.21
73842;BME280;62184;52.006;5.924;2022-11-20T01:19:17;100589.97;;;-2.34;66.30
73842;BME280;62184;52.006;5.924;2022-11-20T01:21:49;100591.78;;;-2.30;66.64
73842;BME280;62184;52.006;5.924;2022-11-20T01:24:19;100591.81;;;-2.29;66.38
73842;BME280;62184;52.006;5.924;2022-11-20T01:26:48;100584.91;;;-2.27;66.52
73842;BME280;62184;52.006;5.924;2022-11-20T01:29:17;100587.53;;;-2.25;66.09
73842;BME280;62184;52.006;5.924;2022-11-20T01:31:45;100581.44;;;-2.24;65.81
73842;BME280;62184;52.006;5.924;2022-11-20T01:34:14;100590.97;;;-2.28;65.55
73842;BME280;62184;52.006;5.924;2022-11-20T01:36:43;100586.38;;;-2.38;65.05
73842;BME280;62184;52.006;5.924;2022-11-20T01:39:14;100580.13;;;-2.44;65.27
73842;BME280;62184;52.006;5.924;2022-11-20T01:41:42;100576.53;;;-2.48;65.35
73842;BME280;62184;52.006;5.924;2022-11-20T01:44:12;100578.22;;;-2.50;65.39
73842;BME280;62184;52.006;5.924;2022-11-20T01:46:50;100565.16;;;-2.51;65.32
73842;BME280;62184;52.006;5.924;2022-11-20T01:49:26;100573.00;;;-2.50;65.37
73842;BME280;62184;52.006;5.924;2022-11-20T01:52:01;100574.72;;;-2.52;65.32
73842;BME280;62184;52.006;5.924;2022-11-20T01:54:38;100572.06;;;-2.54;65.64
73842;BME280;62184;52.006;5.924;2022-11-20T01:57:10;100565.91;;;-2.56;65.84
73842;BME280;62184;52.006;5.924;2022-11-20T01:59:43;100572.13;;;-2.50;65.86
73842;BME280;62184;52.006;5.924;2022-11-20T02:02:17;100567.84;;;-2.47;65.85
73842;BME280;62184;52.006;5.924;2022-11-20T02:04:44;100567.91;;;-2.45;65.64
73842;BME280;62184;52.006;5.924;2022-11-20T02:07:11;100573.97;;;-2.46;65.86
73842;BME280;62184;52.006;5.924;2022-11-20T02:09:40;100567.94;;;-2.44;65.75
73842;BME280;62184;52.006;5.924;2022-11-20T02:12:07;100563.50;;;-2.46;65.59
73842;BME280;62184;52.006;5.924;2022-11-20T02:14:34;100563.44;;;-2.51;65.68
73842;BME280;62184;52.006;5.924;2022-11-20T02:17:00;100565.91;;;-2.56;66.26
73842;BME280;62184;52.006;5.924;2022-11-20T02:19:28;100561.47;;;-2.60;66.60
73842;BME280;62184;52.006;5.924;2022-11-20T02:22:02;100560.56;;;-2.62;67.07
73842;BME280;62184;52.006;5.924;2022-11-20T02:24:36;100557.94;;;-2.62;67.12
73842;BME280;62184;52.006;5.924;2022-11-20T02:27:05;100557.09;;;-2.61;67.18
73842;BME280;62184;52.006;5.924;2022-11-20T02:29:37;100558.88;;;-2.58;67.77
73842;BME280;62184;52.006;5.924;2022-11-20T02:32:17;100557.28;;;-2.53;67.85
73842;BME280;62184;52.006;5.924;2022-11-20T02:34:44;100554.75;;;-2.48;67.75
73842;BME280;62184;52.006;5.924;2022-11-20T02:37:11;100560.94;;;-2.45;67.37
73842;BME280;62184;52.006;5.924;2022-11-20T02:39:41;100557.53;;;-2.41;67.50
73842;BME280;62184;52.006;5.924;2022-11-20T02:42:09;100556.78;;;-2.37;67.38
73842;BME280;62184;52.006;5.924;2022-11-20T02:44:36;100559.44;;;-2.34;66.95
73842;BME280;62184;52.006;5.924;2022-11-20T02:47:02;100558.63;;;-2.31;66.96
73842;BME280;62184;52.006;5.924;2022-11-20T02:49:29;100551.63;;;-2.32;66.94
73842;BME280;62184;52.006;5.924;2022-11-20T02:51:55;100549.94;;;-2.30;66.91
73842;BME280;62184;52.006;5.924;2022-11-20T02:54:22;100544.72;;;-2.30;67.00
73842;BME280;62184;52.006;5.924;2022-11-20T02:56:52;100544.72;;;-2.30;66.81
73842;BME280;62184;52.006;5.924;2022-11-20T02:59:18;100549.13;;;-2.28;66.86
73842;BME280;62184;52.006;5.924;2022-11-20T03:01:45;100547.44;;;-2.26;66.61
73842;BME280;62184;52.006;5.924;2022-11-20T03:04:11;100550.94;;;-2.24;66.12
73842;BME280;62184;52.006;5.924;2022-11-20T03:06:38;100543.06;;;-2.27;66.00
73842;BME280;62184;52.006;5.924;2022-11-20T03:09:04;100543.91;;;-2.28;66.01
73842;BME280;62184;52.006;5.924;2022-11-20T03:11:30;100545.50;;;-2.34;65.75
73842;BME280;62184;52.006;5.924;2022-11-20T03:14:01;100548.00;;;-2.39;65.61
73842;BME280;62184;52.006;5.924;2022-11-20T03:16:28;100532.22;;;-2.42;65.39
73842;BME280;62184;52.006;5.924;2022-11-20T03:18:54;100533.91;;;-2.45;65.32
73842;BME280;62184;52.006;5.924;2022-11-20T03:21:21;100530.38;;;-2.47;65.12
73842;BME280;62184;52.006;5.924;2022-11-20T03:23:47;100521.59;;;-2.49;65.18
73842;BME280;62184;52.006;5.924;2022-11-20T03:26:16;100517.22;;;-2.50;65.22
73842;BME280;62184;52.006;5.924;2022-11-20T03:28:47;100518.94;;;-2.53;65.20
73842;BME280;62184;52.006;5.924;2022-11-20T03:31:18;100507.47;;;-2.59;65.55
73842;BME280;62184;52.006;5.924;2022-11-20T03:33:46;100509.03;;;-2.66;65.84
73842;BME280;62184;52.006;5.924;2022-11-20T03:36:15;100515.91;;;-2.71;66.27
73842;BME280;62184;52.006;5.924;2022-11-20T03:38:44;100505.31;;;-2.77;66.48
73842;BME280;62184;52.006;5.924;2022-11-20T03:41:12;100508.81;;;-2.75;66.44
73842;BME280;62184;52.006;5.924;2022-11-20T03:43:40;100517.53;;;-2.76;66.89
73842;BME280;62184;52.006;5.924;2022-11-20T03:46:07;100519.28;;;-2.75;67.07
73842;BME280;62184;52.006;5.924;2022-11-20T03:48:36;100514.09;;;-2.73;67.16
73842;BME280;62184;52.006;5.924;2022-11-20T03:51:07;100517.63;;;-2.71;67.71
73842;BME280;62184;52.006;5.924;2022-11-20T03:53:35;100515.97;;;-2.68;67.73
73842;BME280;62184;52.006;5.924;2022-11-20T03:56:01;100508.16;;;-2.66;68.01
73842;BME280;62184;52.006;5.924;2022-11-20T03:58:28;100500.44;;;-2.62;68.35
73842;BME280;62184;52.006;5.924;2022-11-20T04:00:54;100497.91;;;-2.57;68.41
73842;BME280;62184;52.006;5.924;2022-11-20T04:03:20;100502.41;;;-2.51;68.36
73842;BME280;62184;52.006;5.924;2022-11-20T04:05:49;100510.34;;;-2.47;67.91
73842;BME280;62184;52.006;5.924;2022-11-20T04:08:16;100511.25;;;-2.45;67.30
73842;BME280;62184;52.006;5.924;2022-11-20T04:10:42;100507.75;;;-2.45;67.36
73842;BME280;62184;52.006;5.924;2022-11-20T04:13:09;100510.34;;;-2.47;67.38
73842;BME280;62184;52.006;5.924;2022-11-20T04:15:35;100505.06;;;-2.48;67.72
73842;BME280;62184;52.006;5.924;2022-11-20T04:18:01;100496.38;;;-2.47;68.00
73842;BME280;62184;52.006;5.924;2022-11-20T04:20:28;100496.38;;;-2.47;67.80
73842;BME280;62184;52.006;5.924;2022-11-20T04:22:57;100492.06;;;-2.45;67.92
73842;BME280;62184;52.006;5.924;2022-11-20T04:25:23;100497.38;;;-2.42;67.86
73842;BME280;62184;52.006;5.924;2022-11-20T04:27:49;100499.13;;;-2.43;67.36
73842;BME280;62184;52.006;5.924;2022-11-20T04:30:16;100495.63;;;-2.43;67.15
73842;BME280;62184;52.006;5.924;2022-11-20T04:32:42;100496.47;;;-2.44;67.24
73842;BME280;62184;52.006;5.924;2022-11-20T04:35:09;100491.19;;;-2.46;66.83
73842;BME280;62184;52.006;5.924;2022-11-20T04:37:35;100486.81;;;-2.47;66.83
73842;BME280;62184;52.006;5.924;2022-11-20T04:40:05;100492.00;;;-2.48;66.65
73842;BME280;62184;52.006;5.924;2022-11-20T04:42:32;100482.31;;;-2.54;66.69
73842;BME280;62184;52.006;5.924;2022-11-20T04:44:58;100482.19;;;-2.59;67.45
73842;BME280;62184;52.006;5.924;2022-11-20T04:47:25;100491.75;;;-2.61;68.07
73842;BME280;62184;52.006;5.924;2022-11-20T04:49:51;100491.75;;;-2.61;68.08
73842;BME280;62184;52.006;5.924;2022-11-20T04:52:18;100483.94;;;-2.59;68.12
73842;BME280;62184;52.006;5.924;2022-11-20T04:54:45;100484.06;;;-2.53;68.19
73842;BME280;62184;52.006;5.924;2022-11-20T04:57:15;100491.06;;;-2.50;67.93
73842;BME280;62184;52.006;5.924;2022-11-20T04:59:41;100489.28;;;-2.53;67.90
73842;BME280;62184;52.006;5.924;2022-11-20T05:02:08;100485.72;;;-2.57;67.53
73842;BME280;62184;52.006;5.924;2022-11-20T05:04:34;100478.75;;;-2.56;67.78
73842;BME280;62184;52.006;5.924;2022-11-20T05:07:01;100479.72;;;-2.53;67.52
73842;BME280;62184;52.006;5.924;2022-11-20T05:09:27;100479.78;;;-2.49;67.37
73842;BME280;62184;52.006;5.924;2022-11-20T05:11:54;100470.16;;;-2.50;67.13
73842;BME280;62184;52.006;5.924;2022-11-20T05:14:23;100471.03;;;-2.51;67.24
73842;BME280;62184;52.006;5.924;2022-11-20T05:16:49;100471.00;;;-2.53;67.05
73842;BME280;62184;52.006;5.924;2022-11-20T05:19:15;100466.63;;;-2.54;66.91
73842;BME280;62184;52.006;5.924;2022-11-20T05:21:42;100463.91;;;-2.57;66.81
73842;BME280;62184;52.006;5.924;2022-11-20T05:24:08;100460.38;;;-2.61;66.49
73842;BME280;62184;52.006;5.924;2022-11-20T05:26:35;100450.66;;;-2.66;66.53
73842;BME280;62184;52.006;5.924;2022-11-20T05:29:01;100446.25;;;-2.69;66.58
73842;BME280;62184;52.006;5.924;2022-11-20T05:31:30;100441.03;;;-2.69;66.79
73842;BME280;62184;52.006;5.924;2022-11-20T05:33:57;100446.19;;;-2.72;66.49
73842;BME280;62184;52.006;5.924;2022-11-20T05:36:24;100448.75;;;-2.73;66.42
73842;BME280;62184;52.006;5.924;2022-11-20T05:38:50;100455.66;;;-2.77;66.51
73842;BME280;62184;52.006;5.924;2022-11-20T05:41:19;100463.34;;;-2.83;66.49
73842;BME280;62184;52.006;5.924;2022-11-20T05:43:47;100465.06;;;-2.85;66.83
73842;BME280;62184;52.006;5.924;2022-11-20T05:46:17;100464.19;;;-2.84;66.79
73842;BME280;62184;52.006;5.924;2022-11-20T05:48:47;100457.34;;;-2.79;66.93
73842;BME280;62184;52.006;5.924;2022-11-20T05:51:17;100445.13;;;-2.80;66.69
73842;BME280;62184;52.006;5.924;2022-11-20T05:53:45;100460.78;;;-2.81;66.70
73842;BME280;62184;52.006;5.924;2022-11-20T05:56:14;100462.53;;;-2.80;66.58
73842;BME280;62184;52.006;5.924;2022-11-20T05:58:42;100467.75;;;-2.80;66.55
73842;BME280;62184;52.006;5.924;2022-11-20T06:01:12;100453.78;;;-2.82;66.57
73842;BME280;62184;52.006;5.924;2022-11-20T06:03:43;100457.22;;;-2.83;66.41
73842;BME280;62184;52.006;5.924;2022-11-20T06:06:13;100461.66;;;-2.81;66.32
73842;BME280;62184;52.006;5.924;2022-11-20T06:08:40;100446.78;;;-2.85;65.98
73842;BME280;62184;52.006;5.924;2022-11-20T06:11:08;100462.38;;;-2.88;66.08
73842;BME280;62184;52.006;5.924;2022-11-20T06:13:36;100468.31;;;-2.95;66.05
73842;BME280;62184;52.006;5.924;2022-11-20T06:16:04;100459.31;;;-3.06;66.68
73842;BME280;62184;52.006;5.924;2022-11-20T06:18:31;100467.94;;;-3.10;67.10
73842;BME280;62184;52.006;5.924;2022-11-20T06:21:02;100471.41;;;-3.11;67.48
73842;BME280;62184;52.006;5.924;2022-11-20T06:23:33;100477.50;;;-3.11;67.92
73842;BME280;62184;52.006;5.924;2022-11-20T06:26:02;100480.06;;;-3.12;68.05
73842;BME280;62184;52.006;5.924;2022-11-20T06:28:29;100482.78;;;-3.09;67.98
73842;BME280;62184;52.006;5.924;2022-11-20T06:30:55;100479.38;;;-3.05;67.78
73842;BME280;62184;52.006;5.924;2022-11-20T06:33:22;100482.91;;;-3.03;67.65
73842;BME280;62184;52.006;5.924;2022-11-20T06:35:49;100480.34;;;-3.02;67.47
73842;BME280;62184;52.006;5.924;2022-11-20T06:38:15;100474.22;;;-3.02;67.61
73842;BME280;62184;52.006;5.924;2022-11-20T06:40:44;100484.69;;;-3.02;67.52
73842;BME280;62184;52.006;5.924;2022-11-20T06:43:11;100486.38;;;-3.04;67.72
73842;BME280;62184;52.006;5.924;2022-11-20T06:45:37;100484.63;;;-3.04;67.75
73842;BME280;62184;52.006;5.924;2022-11-20T06:48:04;100485.53;;;-3.03;67.76
73842;BME280;62184;52.006;5.924;2022-11-20T06:50:31;100491.69;;;-3.01;67.72
73842;BME280;62184;52.006;5.924;2022-11-20T06:53:00;100491.69;;;-3.01;67.21
73842;BME280;62184;52.006;5.924;2022-11-20T06:55:27;100496.06;;;-2.99;67.28
73842;BME280;62184;52.006;5.924;2022-11-20T06:57:56;100497.03;;;-2.95;67.17
73842;BME280;62184;52.006;5.924;2022-11-20T07:00:23;100485.78;;;-2.93;66.95
73842;BME280;62184;52.006;5.924;2022-11-20T07:02:50;100485.78;;;-2.93;66.89
73842;BME280;62184;52.006;5.924;2022-11-20T07:05:17;100477.88;;;-2.96;67.01
73842;BME280;62184;52.006;5.924;2022-11-20T07:07:43;100475.22;;;-2.97;66.98
73842;BME280;62184;52.006;5.924;2022-11-20T07:10:10;100483.84;;;-3.00;66.99
73842;BME280;62184;52.006;5.924;2022-11-20T07:12:37;100489.91;;;-3.02;67.31
73842;BME280;62184;52.006;5.924;2022-11-20T07:15:07;100490.78;;;-3.02;67.73
73842;BME280;62184;52.006;5.924;2022-11-20T07:17:34;100487.44;;;-2.96;67.85
73842;BME280;62184;52.006;5.924;2022-11-20T07:20:00;100484.91;;;-2.93;67.79
73842;BME280;62184;52.006;5.924;2022-11-20T07:22:27;100480.56;;;-2.91;67.88
73842;BME280;62184;52.006;5.924;2022-11-20T07:24:53;100484.16;;;-2.87;68.16
73842;BME280;62184;52.006;5.924;2022-11-20T07:27:19;100479.06;;;-2.81;68.26
73842;BME280;62184;52.006;5.924;2022-11-20T07:29:46;100472.19;;;-2.78;68.29
73842;BME280;62184;52.006;5.924;2022-11-20T07:32:15;100470.50;;;-2.76;68.46
73842;BME280;62184;52.006;5.924;2022-11-20T07:34:41;100462.78;;;-2.70;68.68
73842;BME280;62184;52.006;5.924;2022-11-20T07:37:07;100459.44;;;-2.63;68.76
73842;BME280;62184;52.006;5.924;2022-11-20T07:39:34;100462.22;;;-2.55;68.50
73842;BME280;62184;52.006;5.924;2022-11-20T07:42:00;100464.94;;;-2.52;68.43
73842;BME280;62184;52.006;5.924;2022-11-20T07:44:27;100471.91;;;-2.51;68.63
73842;BME280;62184;52.006;5.924;2022-11-20T07:46:53;100466.78;;;-2.46;68.98
73842;BME280;62184;52.006;5.924;2022-11-20T07:49:22;100457.44;;;-2.34;69.42
73842;BME280;62184;52.006;5.924;2022-11-20T07:51:50;100453.28;;;-2.24;69.54
73842;BME280;62184;52.006;5.924;2022-11-20T07:54:17;100443.94;;;-2.13;69.30
73842;BME280;62184;52.006;5.924;2022-11-20T07:56:43;100451.97;;;-2.04;69.29
73842;BME280;62184;52.006;5.924;2022-11-20T07:59:09;100444.31;;;-1.93;69.26
73842;BME280;62184;52.006;5.924;2022-11-20T08:01:36;100461.97;;;-1.82;69.35
73842;BME280;62184;52.006;5.924;2022-11-20T08:04:02;100458.69;;;-1.71;69.36
73842;BME280;62184;52.006;5.924;2022-11-20T08:06:31;100457.09;;;-1.63;68.95
73842;BME280;62184;52.006;5.924;2022-11-20T08:08:58;100449.34;;;-1.56;69.02
73842;BME280;62184;52.006;5.924;2022-11-20T08:11:25;100457.41;;;-1.45;69.10
73842;BME280;62184;52.006;5.924;2022-11-20T08:13:51;100455.88;;;-1.34;69.02
73842;BME280;62184;52.006;5.924;2022-11-20T08:16:18;100468.22;;;-1.24;68.99
73842;BME280;62184;52.006;5.924;2022-11-20T08:18:44;100465.75;;;-1.16;69.13
73842;BME280;62184;52.006;5.924;2022-11-20T08:21:10;100472.00;;;-1.07;68.97
73842;BME280;62184;52.006;5.924;2022-11-20T08:23:39;100464.28;;;-1.01;69.16
73842;BME280;62184;52.006;5.924;2022-11-20T08:26:06;100472.22;;;-0.94;69.13
73842;BME280;62184;52.006;5.924;2022-11-20T08:28:32;100472.38;;;-0.85;69.45
73842;BME280;62184;52.006;5.924;2022-11-20T08:30:59;100466.34;;;-0.78;69.20
73842;BME280;62184;52.006;5.924;2022-11-20T08:33:29;100466.50;;;-0.68;69.44
73842;BME280;62184;52.006;5.924;2022-11-20T08:35:58;100459.63;;;-0.58;69.25
73842;BME280;62184;52.006;5.924;2022-11-20T08:38:25;100465.91;;;-0.50;69.18
73842;BME280;62184;52.006;5.924;2022-11-20T08:40:56;100456.34;;;-0.43;69.36
73842;BME280;62184;52.006;5.924;2022-11-20T08:43:23;100458.19;;;-0.36;69.08
73842;BME280;62184;52.006;5.924;2022-11-20T08:45:49;100459.16;;;-0.30;69.06
73842;BME280;62184;52.006;5.924;2022-11-20T08:48:16;100451.41;;;-0.19;68.92
73842;BME280;62184;52.006;5.924;2022-11-20T08:50:42;100450.66;;;-0.10;68.92
73842;BME280;62184;52.006;5.924;2022-11-20T08:53:08;100431.44;;;-0.06;68.97
73842;BME280;62184;52.006;5.924;2022-11-20T08:55:35;100433.25;;;0.01;68.82
73842;BME280;62184;52.006;5.924;2022-11-20T08:58:06;100433.34;;;0.07;68.54
73842;BME280;62184;52.006;5.924;2022-11-20T09:00:33;100431.69;;;0.18;68.54
73842;BME280;62184;52.006;5.924;2022-11-20T09:03:00;100430.03;;;0.28;68.77
73842;BME280;62184;52.006;5.924;2022-11-20T09:05:27;100428.34;;;0.31;68.58
73842;BME280;62184;52.006;5.924;2022-11-20T09:07:55;100433.69;;;0.40;68.70
73842;BME280;62184;52.006;5.924;2022-11-20T09:10:22;100421.44;;;0.44;68.47
73842;BME280;62184;52.006;5.924;2022-11-20T09:12:48;100413.59;;;0.47;68.55
73842;BME280;62184;52.006;5.924;2022-11-20T09:15:18;100416.28;;;0.53;68.77
73842;BME280;62184;52.006;5.924;2022-11-20T09:17:50;100410.19;;;0.57;68.61
73842;BME280;62184;52.006;5.924;2022-11-20T09:20:17;100409.44;;;0.72;68.69
73842;BME280;62184;52.006;5.924;2022-11-20T09:22:43;100403.41;;;0.86;68.35
73842;BME280;62184;52.006;5.924;2022-11-20T09:25:10;100404.41;;;1.04;68.30
73842;BME280;62184;52.006;5.924;2022-11-20T09:27:36;100418.53;;;1.16;67.76
73842;BME280;62184;52.006;5.924;2022-11-20T09:30:03;100410.63;;;1.18;67.61
73842;BME280;62184;52.006;5.924;2022-11-20T09:32:33;100402.75;;;1.19;67.13
73842;BME280;62184;52.006;5.924;2022-11-20T09:35:00;100402.78;;;1.27;67.19
73842;BME280;62184;52.006;5.924;2022-11-20T09:37:26;100400.19;;;1.30;66.75
73842;BME280;62184;52.006;5.924;2022-11-20T09:39:52;100402.81;;;1.28;66.76
73842;BME280;62184;52.006;5.924;2022-11-20T09:42:32;100396.66;;;1.26;66.81
73842;BME280;62184;52.006;5.924;2022-11-20T09:45:16;100401.03;;;1.27;66.57
73842;BME280;62184;52.006;5.924;2022-11-20T09:48:13;100398.44;;;1.35;66.72
73842;BME280;62184;52.006;5.924;2022-11-20T09:51:06;100402.03;;;1.49;66.77
73842;BME280;62184;52.006;5.924;2022-11-20T09:53:54;100397.69;;;1.57;66.53
73842;BME280;62184;52.006;5.924;2022-11-20T09:56:30;100402.09;;;1.64;66.41
73842;BME280;62184;52.006;5.924;2022-11-20T09:59:02;100399.47;;;1.69;66.24
73842;BME280;62184;52.006;5.924;2022-11-20T10:01:35;100384.59;;;1.73;65.92
73842;BME280;62184;52.006;5.924;2022-11-20T10:04:11;100391.63;;;1.75;65.91
73842;BME280;62184;52.006;5.924;2022-11-20T10:06:47;100388.09;;;1.78;66.12
73842;BME280;62184;52.006;5.924;2022-11-20T10:09:22;100375.84;;;1.81;65.97
73842;BME280;62184;52.006;5.924;2022-11-20T10:12:05;100368.84;;;1.94;66.14
73842;BME280;62184;52.006;5.924;2022-11-20T10:14:56;100368.88;;;2.12;65.91
73842;BME280;62184;52.006;5.924;2022-11-20T10:18:03;100368.03;;;2.21;65.85
73842;BME280;62184;52.006;5.924;2022-11-20T10:20:49;100368.03;;;2.30;65.84
73842;BME280;62184;52.006;5.924;2022-11-20T10:23:49;100355.72;;;2.35;65.81
73842;BME280;62184;52.006;5.924;2022-11-20T10:26:43;100351.34;;;2.44;65.87
73842;BME280;62184;52.006;5.924;2022-11-20T10:29:25;100352.22;;;2.57;65.78
73842;BME280;62184;52.006;5.924;2022-11-20T10:32:02;100346.06;;;2.72;65.79
73842;BME280;62184;52.006;5.924;2022-11-20T10:34:34;100339.03;;;2.80;65.44
73842;BME280;62184;52.006;5.924;2022-11-20T10:37:17;100332.84;;;2.86;65.63
73842;BME280;62184;52.006;5.924;2022-11-20T10:39:53;100332.84;;;2.99;65.76
73842;BME280;62184;52.006;5.924;2022-11-20T10:42:30;100324.00;;;3.12;65.49
73842;BME280;62184;52.006;5.924;2022-11-20T10:45:17;100328.38;;;3.23;65.43
73842;BME280;62184;52.006;5.924;2022-11-20T10:48:10;100319.50;;;3.36;65.11
73842;BME280;62184;52.006;5.924;2022-11-20T10:50:49;100313.34;;;3.35;64.82
73842;BME280;62184;52.006;5.924;2022-11-20T10:53:40;100315.09;;;3.38;64.92
73842;BME280;62184;52.006;5.924;2022-11-20T10:56:19;100315.09;;;3.42;64.93
73842;BME280;62184;52.006;5.924;2022-11-20T10:58:59;100312.44;;;3.47;64.99
73842;BME280;62184;52.006;5.924;2022-11-20T11:01:40;100300.06;;;3.52;64.68
73842;BME280;62184;52.006;5.924;2022-11-20T11:04:18;100306.28;;;3.49;64.73
73842;BME280;62184;52.006;5.924;2022-11-20T11:07:01;100320.31;;;3.54;64.74
73842;BME280;62184;52.006;5.924;2022-11-20T11:09:41;100313.25;;;3.60;64.88
73842;BME280;62184;52.006;5.924;2022-11-20T11:12:10;100299.16;;;3.61;64.85
73842;BME280;62184;52.006;5.924;2022-11-20T11:14:48;100289.47;;;3.67;64.69
73842;BME280;62184;52.006;5.924;2022-11-20T11:17:22;100284.13;;;3.69;64.76
73842;BME280;62184;52.006;5.924;2022-11-20T11:20:04;100275.34;;;3.70;64.84
73842;BME280;62184;52.006;5.924;2022-11-20T11:22:43;100272.63;;;3.79;65.04
73842;BME280;62184;52.006;5.924;2022-11-20T11:25:27;100265.53;;;3.90;65.08
73842;BME280;62184;52.006;5.924;2022-11-20T11:27:57;100267.22;;;4.00;65.06
73842;BME280;62184;52.006;5.924;2022-11-20T11:30:27;100262.72;;;4.11;65.03
73842;BME280;62184;52.006;5.924;2022-11-20T11:33:05;100259.09;;;4.23;64.75
73842;BME280;62184;52.006;5.924;2022-11-20T11:35:43;100255.50;;;4.33;64.64
73842;BME280;62184;52.006;5.924;2022-11-20T11:38:14;100256.28;;;4.43;64.75
73842;BME280;62184;52.006;5.924;2022-11-20T11:40:48;100253.56;;;4.50;64.25
73842;BME280;62184;52.006;5.924;2022-11-20T11:43:19;100251.81;;;4.49;64.30
73842;BME280;62184;52.006;5.924;2022-11-20T11:45:52;100232.41;;;4.50;64.40
73842;BME280;62184;52.006;5.924;2022-11-20T11:48:21;100231.47;;;4.56;64.47
73842;BME280;62184;52.006;5.924;2022-11-20T11:50:48;100219.06;;;4.61;64.12
73842;BME280;62184;52.006;5.924;2022-11-20T11:53:17;100226.09;;;4.63;64.06
73842;BME280;62184;52.006;5.924;2022-11-20T11:55:52;100212.88;;;4.65;64.04
73842;BME280;62184;52.006;5.924;2022-11-20T11:58:34;100211.97;;;4.67;64.09
73842;BME280;62184;52.006;5.924;2022-11-20T12:01:20;100202.28;;;4.66;63.90
73842;BME280;62184;52.006;5.924;2022-11-20T12:04:00;100204.94;;;4.65;64.03
73842;BME280;62184;52.006;5.924;2022-11-20T12:06:34;100204.94;;;4.65;63.97
73842;BME280;62184;52.006;5.924;2022-11-20T12:09:08;100201.41;;;4.63;64.07
73842;BME280;62184;52.006;5.924;2022-11-20T12:11:43;100190.91;;;4.57;63.88
73842;BME280;62184;52.006;5.924;2022-11-20T12:14:18;100183.94;;;4.50;64.07
73842;BME280;62184;52.006;5.924;2022-11-20T12:16:48;100184.03;;;4.44;64.34
73842;BME280;62184;52.006;5.924;2022-11-20T12:19:14;100180.47;;;4.45;64.50
73842;BME280;62184;52.006;5.924;2022-11-20T12:21:49;100180.41;;;4.51;64.31
73842;BME280;62184;52.006;5.924;2022-11-20T12:24:41;100173.38;;;4.47;64.05
73842;BME280;62184;52.006;5.924;2022-11-20T12:27:37;100161.06;;;4.44;64.66
73842;BME280;62184;52.006;5.924;2022-11-20T12:30:12;100161.06;;;4.44;64.59
73842;BME280;62184;52.006;5.924;2022-11-20T12:33:03;100161.13;;;4.40;65.05
73842;BME280;62184;52.006;5.924;2022-11-20T12:35:47;100152.34;;;4.38;65.71
73842;BME280;62184;52.006;5.924;2022-11-20T12:45:16;100139.88;;;4.52;66.69
73842;BME280;62184;52.006;5.924;2022-11-20T12:51:28;100127.34;;;4.64;66.79
73842;BME280;62184;52.006;5.924;2022-11-20T12:54:18;100115.91;;;4.64;66.81
73842;BME280;62184;52.006;5.924;2022-11-20T12:57:03;100122.84;;;4.71;66.84
73842;BME280;62184;52.006;5.924;2022-11-20T12:59:50;100127.16;;;4.78;66.80
73842;BME280;62184;52.006;5.924;2022-11-20T13:02:30;100123.59;;;4.82;66.65
73842;BME280;62184;52.006;5.924;2022-11-20T13:05:20;100122.72;;;4.83;66.49
73842;BME280;62184;52.006;5.924;2022-11-20T13:07:53;100117.41;;;4.85;66.64
73842;BME280;62184;52.006;5.924;2022-11-20T13:10:26;100108.53;;;4.87;66.83
73842;BME280;62184;52.006;5.924;2022-11-20T13:13:07;100113.81;;;4.87;66.49
73842;BME280;62184;52.006;5.924;2022-11-20T13:15:50;100114.69;;;4.92;66.54
73842;BME280;62184;52.006;5.924;2022-11-20T13:18:22;100115.59;;;4.88;66.41
73842;BME280;62184;52.006;5.924;2022-11-20T13:20:49;100117.44;;;4.80;66.71